Time;durP1;ratioP1;P1;durP2;ratioP2;P2;SDS_P1;SDS_P2;PMS_P1;PMS_P2;Temp;Humidity;BMP_temperature;BMP_pressure;BME280_temperature;BME280_humidity;BME280_pressure;Samples;Min_cycle;Max_cycle;Signal;HPM_P1;HPM_P2
2022/01/21 00:01:01;;;;;;;;;;;-0.20;99.90;;;;;;4943951;28;20053;-72
2022/01/21 00:03:29;;;;;;;;;;;-0.20;99.90;;;;;;4944158;28;20278;-72
2022/01/21 00:05:56;;;;;;;;;;;-0.20;99.90;;;;;;4944295;28;20060;-72
2022/01/21 00:08:23;;;;;;;;;;;-0.20;99.90;;;;;;4944251;28;20081;-73
2022/01/21 00:10:53;;;;;;;;;;;-0.20;99.90;;;;;;4943150;28;20060;-72
2022/01/21 00:13:24;;;;;;;;;;;-0.10;99.90;;;;;;4943955;28;20069;-72
2022/01/21 00:15:51;;;;;;;;;;;-0.10;99.90;;;;;;4944914;28;20067;-73
2022/01/21 00:18:19;;;;;;;;;;;-0.20;99.90;;;;;;4943513;28;20068;-72
2022/01/21 00:31:46;;;;;;;;;;;0.00;99.90;;;;;;4947480;28;21189;-74
2022/01/21 00:34:13;;;;;;;;;;;0.00;99.90;;;;;;4947101;28;20077;-72
2022/01/21 00:36:40;;;;;;;;;;;0.10;99.90;;;;;;4948460;28;20631;-72
2022/01/21 00:39:07;;;;;;;;;;;0.10;99.90;;;;;;4946710;28;20077;-71
2022/01/21 00:41:41;;;;;;;;;;;0.20;99.90;;;;;;4948135;28;20061;-73
2022/01/21 00:44:09;;;;;;;;;;;0.20;99.90;;;;;;4947501;28;20056;-73
2022/01/21 00:46:36;;;;;;;;;;;0.30;99.90;;;;;;4945948;28;20095;-70
2022/01/21 00:49:03;;;;;;;;;;;0.30;99.90;;;;;;4953013;28;20130;-73
2022/01/21 00:51:31;;;;;;;;;;;0.30;99.90;;;;;;4963669;28;20076;-72
2022/01/21 00:53:58;;;;;;;;;;;0.30;99.90;;;;;;4963316;28;20052;-72
2022/01/21 00:56:25;;;;;;;;;;;0.30;99.90;;;;;;4963613;28;20075;-74
2022/01/21 00:58:54;;;;;;;;;;;0.30;99.90;;;;;;4963085;28;20067;-72
2022/01/21 01:01:21;;;;;;;;;;;0.20;99.90;;;;;;4963973;28;20064;-72
2022/01/21 01:03:48;;;;;;;;;;;0.10;99.90;;;;;;4963571;28;20143;-72
2022/01/21 01:06:15;;;;;;;;;;;0.10;99.90;;;;;;4963955;28;20074;-72
2022/01/21 01:08:42;;;;;;;;;;;0.10;99.90;;;;;;4963322;28;20163;-72
2022/01/21 01:22:15;;;;;;;;;;;-0.10;99.90;;;;;;4935750;28;20057;-72
2022/01/21 01:27:41;;;;;;;;;;;-0.20;99.90;;;;;;4931063;28;20296;-72
2022/01/21 01:30:11;;;;;;;;;;;-0.30;99.90;;;;;;4929782;28;20289;-72
2022/01/21 01:32:39;;;;;;;;;;;-0.30;99.90;;;;;;4929961;28;20210;-72
2022/01/21 01:35:07;;;;;;;;;;;-0.30;99.90;;;;;;4930876;28;20085;-72
2022/01/21 01:37:49;;;;;;;;;;;-0.40;99.90;;;;;;4930088;28;20195;-73
2022/01/21 01:40:22;;;;;;;;;;;-0.40;99.90;;;;;;4929520;28;20163;-72
2022/01/21 01:51:04;;;;;;;;;;;-0.30;99.90;;;;;;4930175;28;20083;-73
2022/01/21 01:53:34;;;;;;;;;;;-0.20;99.90;;;;;;4930378;28;20111;-72
2022/01/21 01:56:02;;;;;;;;;;;-0.10;99.90;;;;;;4929691;28;21053;-72
2022/01/21 01:58:29;;;;;;;;;;;-0.10;99.90;;;;;;4930453;28;20052;-72
2022/01/21 02:00:58;;;;;;;;;;;0.00;99.90;;;;;;4929870;28;21119;-72
2022/01/21 02:03:25;;;;;;;;;;;0.00;99.90;;;;;;4929843;28;20051;-72
2022/01/21 02:05:52;;;;;;;;;;;0.10;99.90;;;;;;4930160;28;20076;-72
2022/01/21 02:08:20;;;;;;;;;;;0.20;99.90;;;;;;4930618;28;20094;-72
2022/01/21 02:10:47;;;;;;;;;;;0.20;99.90;;;;;;4929600;28;20087;-72
2022/01/21 02:13:22;;;;;;;;;;;0.20;99.90;;;;;;4929264;28;20100;-73
2022/01/21 02:16:09;;;;;;;;;;;0.30;99.90;;;;;;4929991;28;20075;-72
2022/01/21 02:21:35;;;;;;;;;;;0.40;99.90;;;;;;4929481;28;20122;-72
2022/01/21 02:24:04;;;;;;;;;;;0.40;99.90;;;;;;4929992;28;20249;-72
2022/01/21 02:26:32;;;;;;;;;;;0.40;99.90;;;;;;4928763;28;20084;-72
2022/01/21 02:29:01;;;;;;;;;;;0.40;99.90;;;;;;4929350;28;20281;-72
2022/01/21 02:31:28;;;;;;;;;;;0.40;99.90;;;;;;4929556;28;20075;-72
2022/01/21 02:33:56;;;;;;;;;;;0.40;99.90;;;;;;4928423;28;21246;-72
2022/01/21 02:36:25;;;;;;;;;;;0.30;99.90;;;;;;4930210;28;20109;-72
2022/01/21 02:38:52;;;;;;;;;;;0.30;99.90;;;;;;4928657;28;20063;-72
2022/01/21 02:41:21;;;;;;;;;;;0.30;99.90;;;;;;4929783;28;20060;-72
2022/01/21 02:43:48;;;;;;;;;;;0.30;99.90;;;;;;4929034;28;20069;-72
2022/01/21 02:46:16;;;;;;;;;;;0.40;99.90;;;;;;4929321;28;21283;-72
2022/01/21 02:48:44;;;;;;;;;;;0.40;99.90;;;;;;4928097;28;20068;-69
2022/01/21 02:51:12;;;;;;;;;;;0.50;99.90;;;;;;4929235;28;20093;-72
2022/01/21 02:56:27;;;;;;;;;;;0.50;99.90;;;;;;4929595;28;20061;-72
2022/01/21 02:58:55;;;;;;;;;;;0.50;99.90;;;;;;4928109;28;20151;-72
2022/01/21 03:01:22;;;;;;;;;;;0.50;99.90;;;;;;4929156;28;20898;-72
2022/01/21 03:03:50;;;;;;;;;;;0.60;99.90;;;;;;4928609;28;21144;-73
2022/01/21 03:06:18;;;;;;;;;;;0.60;99.90;;;;;;4929423;28;20097;-72
2022/01/21 03:08:49;;;;;;;;;;;0.60;99.90;;;;;;4928317;28;20081;-71
2022/01/21 03:11:17;;;;;;;;;;;0.60;99.90;;;;;;4928919;28;20070;-72
2022/01/21 03:13:45;;;;;;;;;;;0.60;99.90;;;;;;4928463;28;21197;-72
2022/01/21 03:16:12;;;;;;;;;;;0.70;99.90;;;;;;4929085;28;20076;-74
2022/01/21 03:18:40;;;;;;;;;;;0.70;99.90;;;;;;4928164;28;20143;-71
2022/01/21 03:21:09;;;;;;;;;;;0.70;99.90;;;;;;4928448;28;20197;-72
2022/01/21 03:23:38;;;;;;;;;;;0.70;99.90;;;;;;4928994;28;20182;-73
2022/01/21 03:26:08;;;;;;;;;;;0.70;99.90;;;;;;4928303;28;20051;-71
2022/01/21 03:28:44;;;;;;;;;;;0.70;99.90;;;;;;4928645;28;21233;-75
2022/01/21 03:31:12;;;;;;;;;;;0.70;99.90;;;;;;4928251;28;20070;-71
2022/01/21 03:33:40;;;;;;;;;;;0.70;99.90;;;;;;4927618;28;20101;-72
2022/01/21 03:36:07;;;;;;;;;;;0.60;99.90;;;;;;4928412;28;20060;-71
2022/01/21 03:38:35;;;;;;;;;;;0.60;99.90;;;;;;4928290;28;20061;-71
2022/01/21 03:41:03;;;;;;;;;;;0.50;99.90;;;;;;4927498;28;20155;-71
2022/01/21 03:43:32;;;;;;;;;;;0.40;99.90;;;;;;4928458;28;20183;-72
2022/01/21 03:45:59;;;;;;;;;;;0.50;99.90;;;;;;4928920;28;20216;-72
2022/01/21 03:48:27;;;;;;;;;;;0.50;99.90;;;;;;4928227;28;21051;-72
2022/01/21 03:50:56;;;;;;;;;;;0.40;99.90;;;;;;4927034;28;21096;-72
2022/01/21 03:53:23;;;;;;;;;;;0.40;99.90;;;;;;4927560;28;20225;-72
2022/01/21 03:55:51;;;;;;;;;;;0.50;99.90;;;;;;4928647;28;20061;-72
2022/01/21 03:58:18;;;;;;;;;;;0.50;99.90;;;;;;4928432;28;20127;-71
2022/01/21 04:00:50;;;;;;;;;;;0.50;99.90;;;;;;4926781;28;20070;-72
2022/01/21 04:03:17;;;;;;;;;;;0.60;99.90;;;;;;4927841;28;20075;-72
2022/01/21 04:05:46;;;;;;;;;;;0.60;99.90;;;;;;4928282;28;21159;-72
2022/01/21 04:08:15;;;;;;;;;;;0.70;99.90;;;;;;4928969;28;20061;-72
2022/01/21 04:10:48;;;;;;;;;;;0.70;99.90;;;;;;4928016;28;20061;-72
2022/01/21 04:13:18;;;;;;;;;;;0.70;99.90;;;;;;4927974;28;20151;-72
2022/01/21 04:15:48;;;;;;;;;;;0.70;99.90;;;;;;4928430;28;20067;-73
2022/01/21 04:18:18;;;;;;;;;;;0.70;99.90;;;;;;4927875;28;20247;-72
2022/01/21 04:20:49;;;;;;;;;;;0.70;99.90;;;;;;4927612;28;20069;-72
2022/01/21 04:23:16;;;;;;;;;;;0.80;99.90;;;;;;4928017;28;20075;-71
2022/01/21 04:25:44;;;;;;;;;;;0.80;99.90;;;;;;4927908;28;21147;-72
2022/01/21 04:28:12;;;;;;;;;;;0.80;99.90;;;;;;4928275;28;20286;-72
2022/01/21 04:30:40;;;;;;;;;;;0.80;99.90;;;;;;4927251;28;20101;-72
2022/01/21 04:33:07;;;;;;;;;;;0.80;99.90;;;;;;4927345;28;20263;-74
2022/01/21 04:35:36;;;;;;;;;;;0.70;99.90;;;;;;4928403;28;20187;-71
2022/01/21 04:38:07;;;;;;;;;;;0.70;99.90;;;;;;4928408;28;20077;-71
2022/01/21 04:40:40;;;;;;;;;;;0.70;99.90;;;;;;4927054;28;20209;-72
2022/01/21 04:48:38;;;;;;;;;;;0.80;99.90;;;;;;4928155;28;21109;-70
2022/01/21 04:51:16;;;;;;;;;;;0.80;99.90;;;;;;4927879;28;20059;-73
2022/01/21 04:53:44;;;;;;;;;;;0.80;99.90;;;;;;4927935;28;20275;-73
2022/01/21 04:56:17;;;;;;;;;;;0.70;99.90;;;;;;4928313;28;20077;-72
2022/01/21 04:58:46;;;;;;;;;;;0.60;99.90;;;;;;4928233;28;20052;-71
2022/01/21 05:01:14;;;;;;;;;;;0.60;99.90;;;;;;4928001;28;20061;-72
2022/01/21 05:03:44;;;;;;;;;;;0.60;99.90;;;;;;4927491;28;20065;-74
2022/01/21 05:06:14;;;;;;;;;;;0.60;99.90;;;;;;4927623;28;20061;-73
2022/01/21 05:08:46;;;;;;;;;;;0.60;99.90;;;;;;4927664;28;20066;-72
2022/01/21 05:11:16;;;;;;;;;;;0.50;99.90;;;;;;4929331;28;20175;-72
2022/01/21 05:13:52;;;;;;;;;;;0.50;99.90;;;;;;4931807;28;20060;-71
2022/01/21 05:16:30;;;;;;;;;;;0.60;99.90;;;;;;4931274;28;20061;-72
2022/01/21 05:19:02;;;;;;;;;;;0.60;99.90;;;;;;4931404;28;20069;-72
2022/01/21 05:21:46;;;;;;;;;;;0.60;99.90;;;;;;4931658;28;20053;-73
2022/01/21 05:24:19;;;;;;;;;;;0.60;99.90;;;;;;4931199;28;20053;-71
2022/01/21 05:26:54;;;;;;;;;;;0.60;99.90;;;;;;4931469;28;20069;-72
2022/01/21 05:29:24;;;;;;;;;;;0.60;99.90;;;;;;4930092;28;20087;-72
2022/01/21 05:31:54;;;;;;;;;;;0.60;99.90;;;;;;4930641;28;20059;-75
2022/01/21 05:34:37;;;;;;;;;;;0.60;99.90;;;;;;4930862;28;20053;-72
2022/01/21 05:37:19;;;;;;;;;;;0.60;99.90;;;;;;4930618;28;20072;-72
2022/01/21 05:40:16;;;;;;;;;;;0.60;99.90;;;;;;4929964;28;21222;-72
2022/01/21 05:42:56;;;;;;;;;;;0.70;99.90;;;;;;4930770;28;20595;-72
2022/01/21 05:48:29;;;;;;;;;;;0.70;99.90;;;;;;4950817;28;20375;-71
2022/01/21 05:51:16;;;;;;;;;;;0.70;99.90;;;;;;4950844;28;20075;-71
2022/01/21 05:53:58;;;;;;;;;;;0.70;99.90;;;;;;4930089;28;21150;-71
2022/01/21 05:56:50;;;;;;;;;;;0.70;99.90;;;;;;4930700;28;20101;-72
2022/01/21 05:59:31;;;;;;;;;;;0.70;99.90;;;;;;4929389;28;21080;-72
2022/01/21 06:01:58;;;;;;;;;;;0.70;99.90;;;;;;4928051;28;22034;-72
2022/01/21 06:04:26;;;;;;;;;;;0.70;99.90;;;;;;4944780;28;20076;-71
2022/01/21 06:06:53;;;;;;;;;;;0.70;99.90;;;;;;4946487;28;21153;-72
2022/01/21 06:09:22;;;;;;;;;;;0.60;99.90;;;;;;4945921;28;20222;-73
2022/01/21 06:11:51;;;;;;;;;;;0.50;99.90;;;;;;4958981;28;21304;-71
2022/01/21 06:14:18;;;;;;;;;;;0.50;99.90;;;;;;4949461;28;20061;-72
2022/01/21 06:16:45;;;;;;;;;;;0.40;99.90;;;;;;4949793;28;20084;-73
2022/01/21 06:19:12;;;;;;;;;;;0.40;99.90;;;;;;4947634;28;20084;-71
2022/01/21 06:21:39;;;;;;;;;;;0.30;99.90;;;;;;4950028;28;20096;-74
2022/01/21 06:24:07;;;;;;;;;;;0.30;99.90;;;;;;4948807;28;20061;-72
2022/01/21 06:26:36;;;;;;;;;;;0.30;99.90;;;;;;4949300;28;20061;-72
2022/01/21 06:29:03;;;;;;;;;;;0.30;99.90;;;;;;4948112;28;21236;-73
2022/01/21 06:31:30;;;;;;;;;;;0.30;99.90;;;;;;4948470;28;20083;-72
2022/01/21 06:33:58;;;;;;;;;;;0.30;99.90;;;;;;4948741;28;20088;-73
2022/01/21 06:36:26;;;;;;;;;;;0.40;99.90;;;;;;4938409;28;20069;-68
2022/01/21 06:38:53;;;;;;;;;;;0.40;99.90;;;;;;4933373;28;21075;-73
2022/01/21 06:41:20;;;;;;;;;;;0.40;99.90;;;;;;4924820;28;20143;-72
2022/01/21 06:43:50;;;;;;;;;;;0.40;99.90;;;;;;4925394;28;20061;-75
2022/01/21 06:46:17;;;;;;;;;;;0.40;99.90;;;;;;4928104;28;20052;-72
2022/01/21 06:48:44;;;;;;;;;;;0.50;99.90;;;;;;4927922;28;20093;-72
2022/01/21 06:51:11;;;;;;;;;;;0.50;99.90;;;;;;4932951;28;20069;-70
2022/01/21 06:53:38;;;;;;;;;;;0.50;99.90;;;;;;4957147;28;20060;-71
2022/01/21 06:56:06;;;;;;;;;;;0.60;99.90;;;;;;4948054;28;21125;-72
2022/01/21 06:58:33;;;;;;;;;;;0.60;99.90;;;;;;4946038;28;20084;-72
2022/01/21 07:01:01;;;;;;;;;;;0.70;99.90;;;;;;4946122;28;20199;-72
2022/01/21 07:03:29;;;;;;;;;;;0.70;99.90;;;;;;4930971;28;20074;-73
2022/01/21 07:05:56;;;;;;;;;;;0.70;99.90;;;;;;4930541;28;20060;-72
2022/01/21 07:08:23;;;;;;;;;;;0.70;99.90;;;;;;4929610;28;20163;-73
2022/01/21 07:10:50;;;;;;;;;;;0.80;99.90;;;;;;4934583;28;20150;-75
2022/01/21 07:13:17;;;;;;;;;;;0.80;99.90;;;;;;4948743;28;20086;-71
2022/01/21 07:15:44;;;;;;;;;;;0.80;99.90;;;;;;4948337;28;20171;-71
2022/01/21 07:18:13;;;;;;;;;;;0.80;99.90;;;;;;4948099;28;20058;-71
2022/01/21 07:20:40;;;;;;;;;;;0.80;99.90;;;;;;4947547;28;21187;-71
2022/01/21 07:23:08;;;;;;;;;;;0.80;99.90;;;;;;4947221;28;20061;-71
2022/01/21 07:25:35;;;;;;;;;;;0.80;99.90;;;;;;4947368;28;20262;-69
2022/01/21 07:28:02;;;;;;;;;;;0.80;99.90;;;;;;4947525;28;20060;-71
2022/01/21 07:30:29;;;;;;;;;;;0.90;99.90;;;;;;4946897;28;20060;-71
2022/01/21 07:32:56;;;;;;;;;;;0.80;99.90;;;;;;4946936;28;20066;-71
2022/01/21 07:35:25;;;;;;;;;;;0.80;99.90;;;;;;4947049;28;20060;-70
2022/01/21 07:37:52;;;;;;;;;;;0.90;99.90;;;;;;4947074;28;20170;-72
2022/01/21 07:40:20;;;;;;;;;;;0.90;99.90;;;;;;4942890;28;20150;-71
2022/01/21 07:42:47;;;;;;;;;;;0.90;99.90;;;;;;4941387;28;20150;-73
2022/01/21 07:45:14;;;;;;;;;;;0.90;99.90;;;;;;4961375;28;20180;-72
2022/01/21 07:47:41;;;;;;;;;;;0.90;99.90;;;;;;4943868;28;20092;-72
2022/01/21 07:50:08;;;;;;;;;;;0.90;99.90;;;;;;4938311;28;20094;-71
2022/01/21 07:52:37;;;;;;;;;;;0.90;99.90;;;;;;4946517;28;20109;-71
2022/01/21 07:55:05;;;;;;;;;;;0.90;99.90;;;;;;4948118;28;20154;-72
2022/01/21 07:57:32;;;;;;;;;;;0.90;99.90;;;;;;4947267;28;20077;-71
2022/01/21 07:59:59;;;;;;;;;;;0.90;99.90;;;;;;4946891;28;20058;-72
2022/01/21 08:02:28;;;;;;;;;;;0.90;99.90;;;;;;4947016;28;20052;-71
2022/01/21 08:04:56;;;;;;;;;;;0.90;99.90;;;;;;4942938;28;20076;-72
2022/01/21 08:07:23;;;;;;;;;;;1.00;99.90;;;;;;4953820;28;20059;-72
2022/01/21 08:09:53;;;;;;;;;;;1.00;99.90;;;;;;4959865;28;20163;-68
2022/01/21 08:12:20;;;;;;;;;;;1.10;99.90;;;;;;4942583;28;21266;-73
2022/01/21 08:14:47;;;;;;;;;;;1.10;99.90;;;;;;4934291;28;21128;-71
2022/01/21 08:17:15;;;;;;;;;;;1.20;99.90;;;;;;4932383;28;20084;-71
2022/01/21 08:19:42;;;;;;;;;;;1.20;99.90;;;;;;4935761;28;20725;-72
2022/01/21 08:22:09;;;;;;;;;;;1.20;99.90;;;;;;4945479;28;21142;-72
2022/01/21 08:24:36;;;;;;;;;;;1.30;99.90;;;;;;4938594;28;20114;-72
2022/01/21 08:27:05;;;;;;;;;;;1.30;99.90;;;;;;4942748;28;20151;-70
2022/01/21 08:29:33;;;;;;;;;;;1.30;99.90;;;;;;4943207;28;20061;-72
2022/01/21 08:32:00;;;;;;;;;;;1.40;99.90;;;;;;4936192;28;20164;-70
2022/01/21 08:34:29;;;;;;;;;;;1.40;99.90;;;;;;4997208;23;20162;-70
2022/01/21 08:36:56;;;;;;;;;;;1.40;99.90;;;;;;4986660;28;20068;-70
2022/01/21 08:39:23;;;;;;;;;;;1.40;99.90;;;;;;4987748;28;20068;-70
2022/01/21 08:41:50;;;;;;;;;;;1.50;99.90;;;;;;4989067;28;20088;-69
2022/01/21 08:44:19;;;;;;;;;;;1.50;99.90;;;;;;4987879;28;21315;-70
2022/01/21 08:46:46;;;;;;;;;;;1.50;99.90;;;;;;4991738;28;20159;-70
2022/01/21 08:49:13;;;;;;;;;;;1.50;99.90;;;;;;4991581;28;20068;-70
2022/01/21 08:51:49;;;;;;;;;;;1.40;99.90;;;;;;4992933;28;20218;-70
2022/01/21 08:54:17;;;;;;;;;;;1.40;99.90;;;;;;4992708;28;20083;-69
2022/01/21 08:56:44;;;;;;;;;;;1.40;99.90;;;;;;4992443;28;20059;-70
2022/01/21 08:59:12;;;;;;;;;;;1.40;99.90;;;;;;4991744;28;20170;-70
2022/01/21 09:01:40;;;;;;;;;;;1.40;99.90;;;;;;4992164;28;20059;-70
2022/01/21 09:04:07;;;;;;;;;;;1.50;99.90;;;;;;4992056;28;20162;-70
2022/01/21 09:06:34;;;;;;;;;;;1.50;99.90;;;;;;4991972;28;21314;-69
2022/01/21 09:09:02;;;;;;;;;;;1.60;99.90;;;;;;4988411;28;20094;-70
2022/01/21 09:11:29;;;;;;;;;;;1.70;99.90;;;;;;4990113;28;20232;-70
2022/01/21 09:13:57;;;;;;;;;;;1.80;99.90;;;;;;4989172;28;20103;-69
2022/01/21 09:16:24;;;;;;;;;;;2.00;99.90;;;;;;4989694;28;20060;-71
2022/01/21 09:18:55;;;;;;;;;;;2.20;99.90;;;;;;4988301;28;21142;-69
2022/01/21 09:21:23;;;;;;;;;;;2.40;99.90;;;;;;4989715;28;20088;-70
2022/01/21 09:23:51;;;;;;;;;;;2.50;99.90;;;;;;4989086;28;21170;-70
2022/01/21 09:26:19;;;;;;;;;;;2.60;99.90;;;;;;4989216;28;20060;-70
2022/01/21 09:28:46;;;;;;;;;;;2.80;99.90;;;;;;4988717;28;20083;-69
2022/01/21 09:31:14;;;;;;;;;;;2.80;99.90;;;;;;4988631;28;20073;-70
2022/01/21 09:33:42;;;;;;;;;;;2.90;99.90;;;;;;4988080;28;20105;-70
2022/01/21 09:36:11;;;;;;;;;;;2.90;99.90;;;;;;4989532;28;20067;-70
2022/01/21 09:38:38;;;;;;;;;;;3.00;99.90;;;;;;4988664;28;20060;-69
2022/01/21 09:41:06;;;;;;;;;;;3.00;99.90;;;;;;4988661;28;20073;-70
2022/01/21 09:43:34;;;;;;;;;;;2.90;99.90;;;;;;4989007;28;20095;-70
2022/01/21 09:46:05;;;;;;;;;;;2.90;99.90;;;;;;4988791;28;20074;-70
2022/01/21 09:48:37;;;;;;;;;;;2.90;99.90;;;;;;4989055;28;20130;-70
2022/01/21 09:51:06;;;;;;;;;;;3.00;99.90;;;;;;4988552;28;20163;-70
2022/01/21 09:53:36;;;;;;;;;;;3.10;99.90;;;;;;4987837;28;20052;-69
2022/01/21 09:56:04;;;;;;;;;;;3.30;99.90;;;;;;4988969;28;20067;-70
2022/01/21 09:58:32;;;;;;;;;;;3.40;99.90;;;;;;4987073;28;20057;-70
2022/01/21 10:01:06;;;;;;;;;;;3.30;99.90;;;;;;4988797;28;20149;-69
2022/01/21 10:03:34;;;;;;;;;;;3.30;99.90;;;;;;4989271;28;20105;-70
2022/01/21 10:06:02;;;;;;;;;;;3.50;99.90;;;;;;4989536;28;20051;-70
2022/01/21 10:08:30;;;;;;;;;;;3.60;99.90;;;;;;4987957;28;20060;-70
2022/01/21 10:10:59;;;;;;;;;;;3.70;99.90;;;;;;4979675;28;20068;-69
2022/01/21 10:13:28;;;;;;;;;;;3.70;99.90;;;;;;4968988;28;20052;-69
2022/01/21 10:15:55;;;;;;;;;;;3.70;99.90;;;;;;4969730;28;20052;-70
2022/01/21 10:18:23;;;;;;;;;;;3.70;99.90;;;;;;4969274;28;20153;-70
2022/01/21 10:21:00;;;;;;;;;;;3.80;99.90;;;;;;4967896;28;20067;-70
2022/01/21 10:23:28;;;;;;;;;;;3.70;99.90;;;;;;4967803;28;20099;-69
2022/01/21 10:26:02;;;;;;;;;;;3.70;99.90;;;;;;4969439;28;20228;-70
2022/01/21 10:28:30;;;;;;;;;;;3.60;99.90;;;;;;4969040;28;20060;-69
2022/01/21 10:31:11;;;;;;;;;;;3.60;99.90;;;;;;4968349;28;20060;-70
2022/01/21 10:33:39;;;;;;;;;;;3.70;99.90;;;;;;4968223;28;20097;-70
2022/01/21 10:36:07;;;;;;;;;;;3.80;99.90;;;;;;4968680;28;20060;-70
2022/01/21 10:38:40;;;;;;;;;;;4.10;99.90;;;;;;4968785;28;20060;-69
2022/01/21 10:41:10;;;;;;;;;;;4.40;99.90;;;;;;4968928;28;20140;-70
2022/01/21 10:43:37;;;;;;;;;;;4.60;99.90;;;;;;4968619;28;20105;-70
2022/01/21 10:46:05;;;;;;;;;;;4.90;99.90;;;;;;4968236;28;20150;-70
2022/01/21 10:48:33;;;;;;;;;;;5.40;99.90;;;;;;4968146;28;20442;-70
2022/01/21 10:51:15;;;;;;;;;;;5.40;99.90;;;;;;4967492;28;21138;-72
2022/01/21 10:53:43;;;;;;;;;;;5.40;99.90;;;;;;4967663;28;20060;-70
2022/01/21 10:56:13;;;;;;;;;;;5.20;99.90;;;;;;4969280;28;20082;-70
2022/01/21 10:58:40;;;;;;;;;;;4.80;99.90;;;;;;4967516;28;20060;-69
2022/01/21 11:01:13;;;;;;;;;;;4.70;99.90;;;;;;4967968;28;20091;-71
2022/01/21 11:03:55;;;;;;;;;;;4.40;99.90;;;;;;4968047;28;20150;-70
2022/01/21 11:06:25;;;;;;;;;;;4.20;99.90;;;;;;4968072;28;20149;-70
2022/01/21 11:08:52;;;;;;;;;;;4.20;99.90;;;;;;4965407;28;20060;-69
2022/01/21 11:11:24;;;;;;;;;;;4.20;99.90;;;;;;4977850;28;20084;-70
2022/01/21 11:13:51;;;;;;;;;;;4.10;99.90;;;;;;4987656;28;21230;-70
2022/01/21 11:16:20;;;;;;;;;;;4.20;99.90;;;;;;4987271;28;20051;-71
2022/01/21 11:18:51;;;;;;;;;;;4.20;99.90;;;;;;4986431;28;20060;-70
2022/01/21 11:21:18;;;;;;;;;;;4.40;99.90;;;;;;4987134;28;21076;-70
2022/01/21 11:23:45;;;;;;;;;;;4.50;99.90;;;;;;4986886;28;20059;-70
2022/01/21 11:26:15;;;;;;;;;;;4.40;99.90;;;;;;4986957;28;20150;-70
2022/01/21 11:28:46;;;;;;;;;;;4.40;99.90;;;;;;4986655;28;20052;-69
2022/01/21 11:31:14;;;;;;;;;;;4.40;99.90;;;;;;4987110;28;21177;-70
2022/01/21 11:33:41;;;;;;;;;;;4.40;99.90;;;;;;4986243;28;21143;-70
2022/01/21 11:36:08;;;;;;;;;;;4.40;99.90;;;;;;4987186;28;21143;-70
2022/01/21 11:38:37;;;;;;;;;;;4.40;99.90;;;;;;4986916;28;20098;-70
2022/01/21 11:41:05;;;;;;;;;;;4.40;99.90;;;;;;4987284;28;20075;-70
2022/01/21 11:43:33;;;;;;;;;;;4.50;99.90;;;;;;4986867;28;20591;-70
2022/01/21 11:46:17;;;;;;;;;;;4.30;99.90;;;;;;4986804;28;20051;-71
2022/01/21 11:48:51;;;;;;;;;;;4.30;99.90;;;;;;4985906;28;20066;-69
2022/01/21 11:51:20;;;;;;;;;;;4.20;99.90;;;;;;4987135;28;20067;-70
2022/01/21 11:53:49;;;;;;;;;;;4.20;99.90;;;;;;4986303;28;20147;-70
2022/01/21 11:56:35;;;;;;;;;;;4.20;99.90;;;;;;4986770;28;20455;-70
2022/01/21 11:59:07;;;;;;;;;;;4.30;99.90;;;;;;4986107;28;20058;-69
2022/01/21 12:01:39;;;;;;;;;;;4.60;99.90;;;;;;4985864;28;20225;-71
2022/01/21 12:04:06;;;;;;;;;;;4.80;99.90;;;;;;4986400;28;21072;-71
2022/01/21 12:06:34;;;;;;;;;;;4.80;99.90;;;;;;4986609;28;20060;-70
2022/01/21 12:09:02;;;;;;;;;;;4.70;99.90;;;;;;4986001;28;20066;-70
2022/01/21 12:11:30;;;;;;;;;;;4.70;99.90;;;;;;4986523;28;20058;-71
2022/01/21 12:13:57;;;;;;;;;;;4.60;99.90;;;;;;4985788;28;20058;-71
2022/01/21 12:16:45;;;;;;;;;;;4.60;99.90;;;;;;4986735;28;20165;-70
2022/01/21 12:19:22;;;;;;;;;;;4.70;99.90;;;;;;4985995;28;21132;-71
2022/01/21 12:21:51;;;;;;;;;;;4.90;99.90;;;;;;4990641;28;20647;-71
2022/01/21 12:24:37;;;;;;;;;;;5.00;99.90;;;;;;4990161;28;20088;-71
2022/01/21 12:27:04;;;;;;;;;;;5.20;99.90;;;;;;4990590;28;20069;-71
2022/01/21 12:29:32;;;;;;;;;;;5.30;99.90;;;;;;4989424;28;20060;-72
2022/01/21 12:32:04;;;;;;;;;;;5.30;99.90;;;;;;4990491;28;21041;-72
2022/01/21 12:34:46;;;;;;;;;;;5.10;99.90;;;;;;5009011;28;20052;-71
2022/01/21 12:37:17;;;;;;;;;;;5.00;99.90;;;;;;4988624;28;20105;-72
2022/01/21 12:39:46;;;;;;;;;;;5.00;99.90;;;;;;4989740;28;20132;-71
2022/01/21 12:42:27;;;;;;;;;;;5.00;99.90;;;;;;4990459;28;20068;-71
2022/01/21 12:44:55;;;;;;;;;;;5.10;99.90;;;;;;4990313;28;20225;-72
2022/01/21 12:47:29;;;;;;;;;;;5.10;99.90;;;;;;4989545;28;20324;-71
2022/01/21 12:49:58;;;;;;;;;;;5.40;99.90;;;;;;4989598;28;21161;-71
2022/01/21 12:52:51;;;;;;;;;;;5.50;99.90;;;;;;5009185;28;20067;-68
2022/01/21 12:58:07;;;;;;;;;;;5.40;99.90;;;;;;4990189;28;21270;-71
2022/01/21 13:00:34;;;;;;;;;;;5.40;99.90;;;;;;4989246;28;20060;-71
2022/01/21 13:03:05;;;;;;;;;;;5.50;99.90;;;;;;4989333;28;20170;-71
2022/01/21 13:05:39;;;;;;;;;;;5.50;99.90;;;;;;4990536;28;20059;-70
2022/01/21 13:08:11;;;;;;;;;;;5.40;99.90;;;;;;4989710;28;20149;-71
2022/01/21 13:10:39;;;;;;;;;;;5.30;99.90;;;;;;4983949;28;20158;-71
2022/01/21 13:13:22;;;;;;;;;;;5.20;99.90;;;;;;4970488;28;21174;-70
2022/01/21 13:15:51;;;;;;;;;;;5.00;99.90;;;;;;4970340;28;21127;-70
2022/01/21 13:18:19;;;;;;;;;;;5.00;99.90;;;;;;4969660;28;20150;-71
2022/01/21 13:20:47;;;;;;;;;;;5.10;99.90;;;;;;4968844;28;21153;-71
2022/01/21 13:23:29;;;;;;;;;;;5.20;99.90;;;;;;4970238;28;20069;-70
2022/01/21 13:26:09;;;;;;;;;;;5.20;99.90;;;;;;4970502;28;21211;-71
2022/01/21 13:28:37;;;;;;;;;;;5.30;99.90;;;;;;4976781;28;20203;-71
2022/01/21 13:31:04;;;;;;;;;;;5.40;99.90;;;;;;4985132;28;20191;-70
2022/01/21 13:33:32;;;;;;;;;;;5.40;99.90;;;;;;4989756;28;21158;-71
2022/01/21 13:35:59;;;;;;;;;;;5.30;99.90;;;;;;5008857;28;20085;-71
2022/01/21 13:38:29;;;;;;;;;;;5.30;99.90;;;;;;4995899;28;21077;-71
2022/01/21 13:40:57;;;;;;;;;;;5.20;99.90;;;;;;4996076;28;20099;-71
2022/01/21 13:43:25;;;;;;;;;;;5.00;99.90;;;;;;4989477;28;21110;-70
2022/01/21 13:45:58;;;;;;;;;;;4.80;99.90;;;;;;4994547;28;21255;-71
2022/01/21 13:48:26;;;;;;;;;;;4.90;99.90;;;;;;5003134;28;20067;-71
2022/01/21 13:50:53;;;;;;;;;;;4.80;99.90;;;;;;5010193;28;20063;-71
2022/01/21 13:53:22;;;;;;;;;;;4.80;99.90;;;;;;5010095;28;20082;-70
2022/01/21 13:55:52;;;;;;;;;;;4.70;99.90;;;;;;5010394;28;20068;-70
2022/01/21 13:58:21;;;;;;;;;;;4.70;99.90;;;;;;5010300;28;21211;-69
2022/01/21 14:00:49;;;;;;;;;;;4.60;99.90;;;;;;5002161;28;20194;-71
2022/01/21 14:03:19;;;;;;;;;;;4.60;99.90;;;;;;4995211;28;20060;-71
2022/01/21 14:05:50;;;;;;;;;;;4.50;99.90;;;;;;4990885;28;20060;-71
2022/01/21 14:08:19;;;;;;;;;;;4.50;99.90;;;;;;4991154;28;20083;-70
2022/01/21 14:10:46;;;;;;;;;;;4.50;99.90;;;;;;4989883;28;20152;-74
2022/01/21 14:13:15;;;;;;;;;;;4.50;99.90;;;;;;4989868;28;21138;-73
2022/01/21 14:15:42;;;;;;;;;;;4.50;99.90;;;;;;4990344;28;20051;-73
2022/01/21 14:18:09;;;;;;;;;;;4.50;99.90;;;;;;4990097;28;20076;-72
2022/01/21 14:20:38;;;;;;;;;;;4.60;99.90;;;;;;4990268;28;21154;-72
2022/01/21 14:23:06;;;;;;;;;;;4.60;99.90;;;;;;4989565;28;20052;-73
2022/01/21 14:25:33;;;;;;;;;;;4.60;99.90;;;;;;4990427;28;20149;-73
2022/01/21 14:28:00;;;;;;;;;;;4.60;99.90;;;;;;4994033;28;20102;-72
2022/01/21 14:30:40;;;;;;;;;;;4.50;99.90;;;;;;4992745;28;20170;-71
2022/01/21 14:33:09;;;;;;;;;;;4.50;99.90;;;;;;4989431;28;20052;-70
2022/01/21 14:35:40;;;;;;;;;;;4.50;99.90;;;;;;4990266;28;20067;-70
2022/01/21 14:38:09;;;;;;;;;;;4.50;99.90;;;;;;4990340;28;20212;-71
2022/01/21 14:40:37;;;;;;;;;;;4.50;99.90;;;;;;4989781;28;20271;-70
2022/01/21 14:43:06;;;;;;;;;;;4.50;99.90;;;;;;4989366;28;20060;-70
2022/01/21 14:45:36;;;;;;;;;;;4.50;99.90;;;;;;4990222;28;20059;-70
2022/01/21 14:48:12;;;;;;;;;;;4.50;99.90;;;;;;4990069;28;20060;-70
2022/01/21 14:53:08;;;;;;;;;;;4.40;99.90;;;;;;4942805;28;21165;-69
2022/01/21 14:55:38;;;;;;;;;;;4.40;99.90;;;;;;4950214;28;21070;-69
2022/01/21 14:58:10;;;;;;;;;;;4.40;99.90;;;;;;4950610;28;20059;-69
2022/01/21 15:00:42;;;;;;;;;;;4.40;99.90;;;;;;4948552;28;21388;-67
2022/01/21 15:03:14;;;;;;;;;;;4.40;99.90;;;;;;4950131;28;20069;-68
2022/01/21 15:05:42;;;;;;;;;;;4.40;99.90;;;;;;4950414;28;21087;-68
2022/01/21 15:08:14;;;;;;;;;;;4.40;99.90;;;;;;4949982;28;20077;-68
2022/01/21 15:10:44;;;;;;;;;;;4.40;99.90;;;;;;4949120;28;20086;-68
2022/01/21 15:16:12;;;;;;;;;;;4.40;99.90;;;;;;4962336;28;20116;-69
2022/01/21 15:18:39;;;;;;;;;;;4.40;99.90;;;;;;4960607;28;20084;-68
2022/01/21 15:21:14;;;;;;;;;;;4.40;99.90;;;;;;4968544;28;20069;-69
2022/01/21 15:23:42;;;;;;;;;;;4.40;99.90;;;;;;4969604;28;20069;-69
2022/01/21 15:26:09;;;;;;;;;;;4.40;99.90;;;;;;4969618;28;20066;-69
2022/01/21 15:28:36;;;;;;;;;;;4.40;99.90;;;;;;4957570;28;20108;-69
2022/01/21 15:31:03;;;;;;;;;;;4.40;99.90;;;;;;4948689;28;21037;-68
2022/01/21 15:33:32;;;;;;;;;;;4.40;99.90;;;;;;4957999;28;20085;-69
2022/01/21 15:35:59;;;;;;;;;;;4.40;99.90;;;;;;4969239;28;20109;-69
2022/01/21 15:38:28;;;;;;;;;;;4.40;99.90;;;;;;4961122;28;20138;-77